sensor_id;sensor_type;location;lat;lon;timestamp;P1;durP1;ratioP1;P2;durP2;ratioP2
18738;SDS011;9498;51.862;19.460;2022-10-18T00:01:08;18.63;;;6.77;;
18738;SDS011;9498;51.862;19.460;2022-10-18T00:03:37;17.73;;;7.27;;
18738;SDS011;9498;51.862;19.460;2022-10-18T00:06:04;14.47;;;6.53;;
18738;SDS011;9498;51.862;19.460;2022-10-18T00:08:33;12.30;;;7.17;;
18738;SDS011;9498;51.862;19.460;2022-10-18T00:11:00;16.33;;;7.67;;
18738;SDS011;9498;51.862;19.460;2022-10-18T00:13:27;11.03;;;6.20;;
18738;SDS011;9498;51.862;19.460;2022-10-18T00:15:56;14.50;;;7.00;;
18738;SDS011;9498;51.862;19.460;2022-10-18T00:18:23;13.40;;;7.13;;
18738;SDS011;9498;51.862;19.460;2022-10-18T00:20:58;12.40;;;7.00;;
18738;SDS011;9498;51.862;19.460;2022-10-18T00:23:26;15.63;;;8.27;;
18738;SDS011;9498;51.862;19.460;2022-10-18T00:26:01;14.30;;;6.87;;
18738;SDS011;9498;51.862;19.460;2022-10-18T00:28:28;13.33;;;6.97;;
18738;SDS011;9498;51.862;19.460;2022-10-18T00:30:56;15.23;;;7.70;;
18738;SDS011;9498;51.862;19.460;2022-10-18T00:33:23;13.97;;;6.90;;
18738;SDS011;9498;51.862;19.460;2022-10-18T00:35:50;15.87;;;7.13;;
18738;SDS011;9498;51.862;19.460;2022-10-18T00:38:19;13.23;;;6.90;;
18738;SDS011;9498;51.862;19.460;2022-10-18T00:40:46;11.30;;;6.77;;
18738;SDS011;9498;51.862;19.460;2022-10-18T00:43:14;11.67;;;6.20;;
18738;SDS011;9498;51.862;19.460;2022-10-18T00:45:41;13.60;;;7.30;;
18738;SDS011;9498;51.862;19.460;2022-10-18T00:48:09;12.63;;;6.87;;
18738;SDS011;9498;51.862;19.460;2022-10-18T00:50:37;14.37;;;7.13;;
18738;SDS011;9498;51.862;19.460;2022-10-18T00:53:06;11.20;;;6.97;;
18738;SDS011;9498;51.862;19.460;2022-10-18T00:55:36;14.53;;;7.37;;
18738;SDS011;9498;51.862;19.460;2022-10-18T00:58:03;15.07;;;6.83;;
18738;SDS011;9498;51.862;19.460;2022-10-18T01:00:31;11.70;;;6.77;;
18738;SDS011;9498;51.862;19.460;2022-10-18T01:03:03;11.17;;;6.50;;
18738;SDS011;9498;51.862;19.460;2022-10-18T01:05:30;14.40;;;6.97;;
18738;SDS011;9498;51.862;19.460;2022-10-18T01:08:08;13.07;;;6.97;;
18738;SDS011;9498;51.862;19.460;2022-10-18T01:10:41;12.43;;;7.17;;
18738;SDS011;9498;51.862;19.460;2022-10-18T01:13:13;14.33;;;6.90;;
18738;SDS011;9498;51.862;19.460;2022-10-18T01:15:47;16.20;;;7.77;;
18738;SDS011;9498;51.862;19.460;2022-10-18T01:18:18;13.63;;;6.33;;
18738;SDS011;9498;51.862;19.460;2022-10-18T01:20:54;18.20;;;7.50;;
18738;SDS011;9498;51.862;19.460;2022-10-18T01:23:27;14.70;;;7.27;;
18738;SDS011;9498;51.862;19.460;2022-10-18T01:26:01;13.60;;;7.00;;
18738;SDS011;9498;51.862;19.460;2022-10-18T01:28:36;14.43;;;7.70;;
18738;SDS011;9498;51.862;19.460;2022-10-18T01:31:05;13.70;;;6.77;;
18738;SDS011;9498;51.862;19.460;2022-10-18T01:33:36;14.80;;;7.50;;
18738;SDS011;9498;51.862;19.460;2022-10-18T01:36:05;18.13;;;7.23;;
18738;SDS011;9498;51.862;19.460;2022-10-18T01:38:33;12.93;;;7.20;;
18738;SDS011;9498;51.862;19.460;2022-10-18T01:41:02;15.23;;;7.37;;
18738;SDS011;9498;51.862;19.460;2022-10-18T01:43:30;13.73;;;7.50;;
18738;SDS011;9498;51.862;19.460;2022-10-18T01:45:58;17.87;;;8.17;;
18738;SDS011;9498;51.862;19.460;2022-10-18T01:48:27;15.50;;;7.23;;
18738;SDS011;9498;51.862;19.460;2022-10-18T01:50:55;13.13;;;6.77;;
18738;SDS011;9498;51.862;19.460;2022-10-18T01:53:24;13.50;;;6.87;;
18738;SDS011;9498;51.862;19.460;2022-10-18T01:55:54;14.43;;;7.33;;
18738;SDS011;9498;51.862;19.460;2022-10-18T01:58:24;12.43;;;7.57;;
18738;SDS011;9498;51.862;19.460;2022-10-18T02:00:55;15.43;;;8.33;;
18738;SDS011;9498;51.862;19.460;2022-10-18T02:03:26;12.60;;;7.40;;
18738;SDS011;9498;51.862;19.460;2022-10-18T02:05:55;13.97;;;7.60;;
18738;SDS011;9498;51.862;19.460;2022-10-18T02:08:26;13.40;;;6.90;;
18738;SDS011;9498;51.862;19.460;2022-10-18T02:11:02;19.67;;;8.10;;
18738;SDS011;9498;51.862;19.460;2022-10-18T02:13:37;17.90;;;7.90;;
18738;SDS011;9498;51.862;19.460;2022-10-18T02:16:06;16.27;;;7.57;;
18738;SDS011;9498;51.862;19.460;2022-10-18T02:18:37;17.83;;;8.07;;
18738;SDS011;9498;51.862;19.460;2022-10-18T02:21:06;16.73;;;7.43;;
18738;SDS011;9498;51.862;19.460;2022-10-18T02:23:34;16.40;;;6.93;;
18738;SDS011;9498;51.862;19.460;2022-10-18T02:26:02;15.73;;;7.37;;
18738;SDS011;9498;51.862;19.460;2022-10-18T02:28:29;15.90;;;7.57;;
18738;SDS011;9498;51.862;19.460;2022-10-18T02:30:58;17.20;;;7.20;;
18738;SDS011;9498;51.862;19.460;2022-10-18T02:33:31;11.10;;;6.70;;
18738;SDS011;9498;51.862;19.460;2022-10-18T02:36:01;14.90;;;7.17;;
18738;SDS011;9498;51.862;19.460;2022-10-18T02:38:30;18.43;;;7.47;;
18738;SDS011;9498;51.862;19.460;2022-10-18T02:40:57;14.70;;;7.57;;
18738;SDS011;9498;51.862;19.460;2022-10-18T02:43:25;14.97;;;7.13;;
18738;SDS011;9498;51.862;19.460;2022-10-18T02:45:52;15.50;;;7.90;;
18738;SDS011;9498;51.862;19.460;2022-10-18T02:48:20;14.33;;;7.90;;
18738;SDS011;9498;51.862;19.460;2022-10-18T02:50:47;14.67;;;7.53;;
18738;SDS011;9498;51.862;19.460;2022-10-18T02:53:15;13.77;;;7.60;;
18738;SDS011;9498;51.862;19.460;2022-10-18T02:55:43;20.43;;;7.93;;
18738;SDS011;9498;51.862;19.460;2022-10-18T02:58:10;14.33;;;7.53;;
18738;SDS011;9498;51.862;19.460;2022-10-18T03:00:38;13.87;;;7.60;;
18738;SDS011;9498;51.862;19.460;2022-10-18T03:03:06;17.80;;;7.90;;
18738;SDS011;9498;51.862;19.460;2022-10-18T03:05:33;17.63;;;7.90;;
18738;SDS011;9498;51.862;19.460;2022-10-18T03:08:00;18.90;;;7.80;;
18738;SDS011;9498;51.862;19.460;2022-10-18T03:10:28;14.50;;;7.70;;
18738;SDS011;9498;51.862;19.460;2022-10-18T03:12:56;14.47;;;7.77;;
18738;SDS011;9498;51.862;19.460;2022-10-18T03:15:23;16.50;;;7.73;;
18738;SDS011;9498;51.862;19.460;2022-10-18T03:17:50;17.33;;;7.70;;
18738;SDS011;9498;51.862;19.460;2022-10-18T03:20:17;18.07;;;7.43;;
18738;SDS011;9498;51.862;19.460;2022-10-18T03:22:45;17.10;;;7.80;;
18738;SDS011;9498;51.862;19.460;2022-10-18T03:25:12;13.93;;;7.60;;
18738;SDS011;9498;51.862;19.460;2022-10-18T03:27:40;15.77;;;8.23;;
18738;SDS011;9498;51.862;19.460;2022-10-18T03:30:08;28.23;;;8.47;;
18738;SDS011;9498;51.862;19.460;2022-10-18T03:32:36;22.43;;;8.57;;
18738;SDS011;9498;51.862;19.460;2022-10-18T03:35:03;15.20;;;8.13;;
18738;SDS011;9498;51.862;19.460;2022-10-18T03:37:30;14.37;;;8.43;;
18738;SDS011;9498;51.862;19.460;2022-10-18T03:39:57;20.60;;;8.87;;
18738;SDS011;9498;51.862;19.460;2022-10-18T03:42:25;19.20;;;8.60;;
18738;SDS011;9498;51.862;19.460;2022-10-18T03:44:53;13.93;;;7.80;;
18738;SDS011;9498;51.862;19.460;2022-10-18T03:47:20;16.07;;;8.00;;
18738;SDS011;9498;51.862;19.460;2022-10-18T03:49:48;13.70;;;8.30;;
18738;SDS011;9498;51.862;19.460;2022-10-18T03:52:15;18.57;;;9.10;;
18738;SDS011;9498;51.862;19.460;2022-10-18T03:54:42;26.00;;;13.73;;
18738;SDS011;9498;51.862;19.460;2022-10-18T03:57:09;30.53;;;18.07;;
18738;SDS011;9498;51.862;19.460;2022-10-18T03:59:36;39.20;;;20.50;;
18738;SDS011;9498;51.862;19.460;2022-10-18T04:02:05;34.13;;;19.17;;
18738;SDS011;9498;51.862;19.460;2022-10-18T04:04:33;29.33;;;15.17;;
18738;SDS011;9498;51.862;19.460;2022-10-18T04:07:00;29.97;;;13.83;;
18738;SDS011;9498;51.862;19.460;2022-10-18T04:09:27;31.83;;;17.47;;
18738;SDS011;9498;51.862;19.460;2022-10-18T04:11:54;28.70;;;13.47;;
18738;SDS011;9498;51.862;19.460;2022-10-18T04:14:22;21.90;;;10.83;;
18738;SDS011;9498;51.862;19.460;2022-10-18T04:16:49;17.70;;;9.83;;
18738;SDS011;9498;51.862;19.460;2022-10-18T04:19:17;19.10;;;10.73;;
18738;SDS011;9498;51.862;19.460;2022-10-18T04:21:45;23.47;;;11.43;;
18738;SDS011;9498;51.862;19.460;2022-10-18T04:24:12;22.93;;;10.17;;
18738;SDS011;9498;51.862;19.460;2022-10-18T04:26:39;17.33;;;9.80;;
18738;SDS011;9498;51.862;19.460;2022-10-18T04:29:06;17.37;;;9.13;;
18738;SDS011;9498;51.862;19.460;2022-10-18T04:31:33;17.23;;;9.03;;
18738;SDS011;9498;51.862;19.460;2022-10-18T04:34:01;19.90;;;10.00;;
18738;SDS011;9498;51.862;19.460;2022-10-18T04:36:30;18.23;;;9.20;;
18738;SDS011;9498;51.862;19.460;2022-10-18T04:38:57;17.03;;;9.10;;
18738;SDS011;9498;51.862;19.460;2022-10-18T04:41:24;22.00;;;9.83;;
18738;SDS011;9498;51.862;19.460;2022-10-18T04:43:51;17.80;;;9.57;;
18738;SDS011;9498;51.862;19.460;2022-10-18T04:46:18;16.70;;;8.60;;
18738;SDS011;9498;51.862;19.460;2022-10-18T04:48:46;20.47;;;9.13;;
18738;SDS011;9498;51.862;19.460;2022-10-18T04:51:13;18.27;;;10.50;;
18738;SDS011;9498;51.862;19.460;2022-10-18T04:53:41;14.77;;;8.73;;
18738;SDS011;9498;51.862;19.460;2022-10-18T04:56:09;17.23;;;8.43;;
18738;SDS011;9498;51.862;19.460;2022-10-18T04:58:36;17.30;;;8.80;;
18738;SDS011;9498;51.862;19.460;2022-10-18T05:01:03;26.37;;;9.60;;
18738;SDS011;9498;51.862;19.460;2022-10-18T05:03:31;16.83;;;8.63;;
18738;SDS011;9498;51.862;19.460;2022-10-18T05:05:58;19.27;;;8.90;;
18738;SDS011;9498;51.862;19.460;2022-10-18T05:08:26;19.03;;;9.37;;
18738;SDS011;9498;51.862;19.460;2022-10-18T05:10:54;20.40;;;9.43;;
18738;SDS011;9498;51.862;19.460;2022-10-18T05:13:22;17.13;;;8.73;;
18738;SDS011;9498;51.862;19.460;2022-10-18T05:15:49;15.47;;;8.77;;
18738;SDS011;9498;51.862;19.460;2022-10-18T05:18:16;16.80;;;8.70;;
18738;SDS011;9498;51.862;19.460;2022-10-18T05:20:43;20.57;;;8.53;;
18738;SDS011;9498;51.862;19.460;2022-10-18T05:23:10;15.93;;;8.57;;
18738;SDS011;9498;51.862;19.460;2022-10-18T05:25:38;19.50;;;9.53;;
18738;SDS011;9498;51.862;19.460;2022-10-18T05:28:06;16.33;;;8.43;;
18738;SDS011;9498;51.862;19.460;2022-10-18T05:30:36;19.30;;;9.60;;
18738;SDS011;9498;51.862;19.460;2022-10-18T05:33:03;18.53;;;9.03;;
18738;SDS011;9498;51.862;19.460;2022-10-18T05:35:31;18.20;;;9.07;;
18738;SDS011;9498;51.862;19.460;2022-10-18T05:38:00;16.67;;;8.93;;
18738;SDS011;9498;51.862;19.460;2022-10-18T05:40:27;15.27;;;8.70;;
18738;SDS011;9498;51.862;19.460;2022-10-18T05:42:55;16.73;;;8.93;;
18738;SDS011;9498;51.862;19.460;2022-10-18T05:45:23;21.50;;;8.50;;
18738;SDS011;9498;51.862;19.460;2022-10-18T05:47:50;20.60;;;8.83;;
18738;SDS011;9498;51.862;19.460;2022-10-18T05:50:18;27.00;;;9.00;;
18738;SDS011;9498;51.862;19.460;2022-10-18T05:52:45;16.53;;;8.30;;
18738;SDS011;9498;51.862;19.460;2022-10-18T05:55:12;16.33;;;8.80;;
18738;SDS011;9498;51.862;19.460;2022-10-18T05:57:39;18.37;;;9.17;;
18738;SDS011;9498;51.862;19.460;2022-10-18T06:00:07;17.87;;;9.20;;
18738;SDS011;9498;51.862;19.460;2022-10-18T06:02:36;22.97;;;9.17;;
18738;SDS011;9498;51.862;19.460;2022-10-18T06:05:03;24.30;;;10.53;;
18738;SDS011;9498;51.862;19.460;2022-10-18T06:07:31;25.63;;;10.57;;
18738;SDS011;9498;51.862;19.460;2022-10-18T06:09:58;26.93;;;9.67;;
18738;SDS011;9498;51.862;19.460;2022-10-18T06:12:25;34.17;;;9.50;;
18738;SDS011;9498;51.862;19.460;2022-10-18T06:14:52;55.60;;;12.00;;
18738;SDS011;9498;51.862;19.460;2022-10-18T06:17:20;39.93;;;10.10;;
18738;SDS011;9498;51.862;19.460;2022-10-18T06:19:48;23.80;;;11.13;;
18738;SDS011;9498;51.862;19.460;2022-10-18T06:22:15;21.53;;;9.90;;
18738;SDS011;9498;51.862;19.460;2022-10-18T06:24:43;18.90;;;9.20;;
18738;SDS011;9498;51.862;19.460;2022-10-18T06:27:10;19.07;;;9.20;;
18738;SDS011;9498;51.862;19.460;2022-10-18T06:29:37;22.33;;;9.03;;
18738;SDS011;9498;51.862;19.460;2022-10-18T06:32:05;21.17;;;9.20;;
18738;SDS011;9498;51.862;19.460;2022-10-18T06:34:33;15.37;;;9.27;;
18738;SDS011;9498;51.862;19.460;2022-10-18T06:37:01;16.10;;;9.17;;
18738;SDS011;9498;51.862;19.460;2022-10-18T06:39:29;25.00;;;9.27;;
18738;SDS011;9498;51.862;19.460;2022-10-18T06:41:56;21.80;;;9.50;;
18738;SDS011;9498;51.862;19.460;2022-10-18T06:44:24;15.57;;;9.07;;
18738;SDS011;9498;51.862;19.460;2022-10-18T06:46:51;18.57;;;9.77;;
18738;SDS011;9498;51.862;19.460;2022-10-18T06:49:18;16.33;;;8.33;;
18738;SDS011;9498;51.862;19.460;2022-10-18T06:51:46;18.30;;;9.33;;
18738;SDS011;9498;51.862;19.460;2022-10-18T06:54:14;19.27;;;9.13;;
18738;SDS011;9498;51.862;19.460;2022-10-18T06:56:42;17.23;;;8.73;;
18738;SDS011;9498;51.862;19.460;2022-10-18T06:59:09;19.73;;;9.63;;
18738;SDS011;9498;51.862;19.460;2022-10-18T07:01:36;19.63;;;9.17;;
18738;SDS011;9498;51.862;19.460;2022-10-18T07:04:03;18.00;;;9.30;;
18738;SDS011;9498;51.862;19.460;2022-10-18T07:06:31;18.27;;;9.53;;
18738;SDS011;9498;51.862;19.460;2022-10-18T07:08:58;18.37;;;8.90;;
18738;SDS011;9498;51.862;19.460;2022-10-18T07:11:28;16.80;;;8.73;;
18738;SDS011;9498;51.862;19.460;2022-10-18T07:13:57;17.60;;;10.17;;
18738;SDS011;9498;51.862;19.460;2022-10-18T07:16:27;17.50;;;9.50;;
18738;SDS011;9498;51.862;19.460;2022-10-18T07:18:54;22.00;;;9.93;;
18738;SDS011;9498;51.862;19.460;2022-10-18T07:21:22;17.47;;;9.57;;
18738;SDS011;9498;51.862;19.460;2022-10-18T07:23:51;21.80;;;9.60;;
18738;SDS011;9498;51.862;19.460;2022-10-18T07:26:19;20.53;;;9.53;;
18738;SDS011;9498;51.862;19.460;2022-10-18T07:28:48;15.37;;;9.17;;
18738;SDS011;9498;51.862;19.460;2022-10-18T07:31:15;22.77;;;9.10;;
18738;SDS011;9498;51.862;19.460;2022-10-18T07:33:43;17.67;;;8.90;;
18738;SDS011;9498;51.862;19.460;2022-10-18T07:36:10;19.53;;;9.33;;
18738;SDS011;9498;51.862;19.460;2022-10-18T07:38:38;22.17;;;9.10;;
18738;SDS011;9498;51.862;19.460;2022-10-18T07:41:06;24.90;;;9.40;;
18738;SDS011;9498;51.862;19.460;2022-10-18T07:43:34;17.17;;;9.17;;
18738;SDS011;9498;51.862;19.460;2022-10-18T07:46:03;23.50;;;9.43;;
18738;SDS011;9498;51.862;19.460;2022-10-18T07:48:30;20.13;;;9.90;;
18738;SDS011;9498;51.862;19.460;2022-10-18T07:50:58;19.03;;;10.17;;
18738;SDS011;9498;51.862;19.460;2022-10-18T07:53:25;21.23;;;10.17;;
18738;SDS011;9498;51.862;19.460;2022-10-18T07:55:55;16.70;;;9.80;;
18738;SDS011;9498;51.862;19.460;2022-10-18T07:58:23;19.10;;;10.07;;
18738;SDS011;9498;51.862;19.460;2022-10-18T08:00:50;20.73;;;10.23;;
18738;SDS011;9498;51.862;19.460;2022-10-18T08:03:18;23.40;;;9.43;;
18738;SDS011;9498;51.862;19.460;2022-10-18T08:05:49;18.97;;;9.53;;
18738;SDS011;9498;51.862;19.460;2022-10-18T08:08:17;19.87;;;10.33;;
18738;SDS011;9498;51.862;19.460;2022-10-18T08:10:44;22.00;;;10.13;;
18738;SDS011;9498;51.862;19.460;2022-10-18T08:13:11;17.60;;;8.93;;
18738;SDS011;9498;51.862;19.460;2022-10-18T08:15:38;22.07;;;10.50;;
18738;SDS011;9498;51.862;19.460;2022-10-18T08:18:06;27.08;;;11.55;;
18738;SDS011;9498;51.862;19.460;2022-10-18T08:20:34;24.40;;;10.00;;
18738;SDS011;9498;51.862;19.460;2022-10-18T08:23:02;21.90;;;10.60;;
18738;SDS011;9498;51.862;19.460;2022-10-18T08:25:29;26.87;;;10.93;;
18738;SDS011;9498;51.862;19.460;2022-10-18T08:27:57;17.70;;;9.33;;
18738;SDS011;9498;51.862;19.460;2022-10-18T08:30:25;17.87;;;9.80;;
18738;SDS011;9498;51.862;19.460;2022-10-18T08:32:52;20.33;;;10.00;;
18738;SDS011;9498;51.862;19.460;2022-10-18T08:35:20;21.27;;;10.50;;
18738;SDS011;9498;51.862;19.460;2022-10-18T08:37:48;25.63;;;10.80;;
18738;SDS011;9498;51.862;19.460;2022-10-18T08:40:16;22.80;;;10.00;;
18738;SDS011;9498;51.862;19.460;2022-10-18T08:42:47;18.63;;;10.63;;
18738;SDS011;9498;51.862;19.460;2022-10-18T08:45:16;25.73;;;11.20;;
18738;SDS011;9498;51.862;19.460;2022-10-18T08:47:44;23.57;;;12.03;;
18738;SDS011;9498;51.862;19.460;2022-10-18T08:50:13;21.30;;;11.03;;
18738;SDS011;9498;51.862;19.460;2022-10-18T08:52:42;25.63;;;12.20;;
18738;SDS011;9498;51.862;19.460;2022-10-18T08:55:13;19.00;;;11.40;;
18738;SDS011;9498;51.862;19.460;2022-10-18T08:57:42;24.00;;;12.00;;
18738;SDS011;9498;51.862;19.460;2022-10-18T09:00:13;22.10;;;11.73;;
18738;SDS011;9498;51.862;19.460;2022-10-18T09:02:46;32.23;;;12.17;;
18738;SDS011;9498;51.862;19.460;2022-10-18T09:05:19;22.00;;;10.70;;
18738;SDS011;9498;51.862;19.460;2022-10-18T09:07:52;25.55;;;13.00;;
18738;SDS011;9498;51.862;19.460;2022-10-18T09:10:24;23.03;;;11.40;;
18738;SDS011;9498;51.862;19.460;2022-10-18T09:13:06;22.03;;;11.70;;
18738;SDS011;9498;51.862;19.460;2022-10-18T09:15:37;27.63;;;12.17;;
18738;SDS011;9498;51.862;19.460;2022-10-18T09:18:08;19.27;;;11.67;;
18738;SDS011;9498;51.862;19.460;2022-10-18T09:20:43;24.53;;;12.47;;
18738;SDS011;9498;51.862;19.460;2022-10-18T09:23:15;23.77;;;12.40;;
18738;SDS011;9498;51.862;19.460;2022-10-18T09:25:46;25.13;;;13.07;;
18738;SDS011;9498;51.862;19.460;2022-10-18T09:28:14;24.40;;;12.87;;
18738;SDS011;9498;51.862;19.460;2022-10-18T09:30:44;23.33;;;13.23;;
18738;SDS011;9498;51.862;19.460;2022-10-18T09:33:24;28.60;;;13.53;;
18738;SDS011;9498;51.862;19.460;2022-10-18T09:35:53;26.03;;;13.00;;
18738;SDS011;9498;51.862;19.460;2022-10-18T09:38:22;24.17;;;13.17;;
18738;SDS011;9498;51.862;19.460;2022-10-18T09:40:52;27.37;;;13.10;;
18738;SDS011;9498;51.862;19.460;2022-10-18T09:43:22;27.23;;;14.27;;
18738;SDS011;9498;51.862;19.460;2022-10-18T09:45:51;26.20;;;13.60;;
18738;SDS011;9498;51.862;19.460;2022-10-18T09:48:20;31.43;;;14.07;;
18738;SDS011;9498;51.862;19.460;2022-10-18T09:50:50;28.50;;;13.47;;
18738;SDS011;9498;51.862;19.460;2022-10-18T09:53:19;30.90;;;14.60;;
18738;SDS011;9498;51.862;19.460;2022-10-18T09:55:52;29.93;;;13.93;;
18738;SDS011;9498;51.862;19.460;2022-10-18T09:58:20;23.83;;;13.30;;
18738;SDS011;9498;51.862;19.460;2022-10-18T10:00:49;30.87;;;13.80;;
18738;SDS011;9498;51.862;19.460;2022-10-18T10:03:17;31.87;;;15.20;;
18738;SDS011;9498;51.862;19.460;2022-10-18T10:05:44;26.37;;;12.93;;
18738;SDS011;9498;51.862;19.460;2022-10-18T10:08:11;30.60;;;13.10;;
18738;SDS011;9498;51.862;19.460;2022-10-18T10:10:39;27.57;;;13.93;;
18738;SDS011;9498;51.862;19.460;2022-10-18T10:13:15;28.07;;;13.80;;
18738;SDS011;9498;51.862;19.460;2022-10-18T10:15:51;24.17;;;14.03;;
18738;SDS011;9498;51.862;19.460;2022-10-18T10:18:19;31.43;;;14.47;;
18738;SDS011;9498;51.862;19.460;2022-10-18T10:20:48;27.17;;;14.53;;
18738;SDS011;9498;51.862;19.460;2022-10-18T10:23:18;30.40;;;14.60;;
18738;SDS011;9498;51.862;19.460;2022-10-18T10:25:48;30.83;;;14.93;;
18738;SDS011;9498;51.862;19.460;2022-10-18T10:28:18;31.87;;;15.50;;
18738;SDS011;9498;51.862;19.460;2022-10-18T10:30:46;29.47;;;14.87;;
18738;SDS011;9498;51.862;19.460;2022-10-18T10:33:33;35.10;;;15.87;;
18738;SDS011;9498;51.862;19.460;2022-10-18T10:36:01;29.00;;;15.03;;
18738;SDS011;9498;51.862;19.460;2022-10-18T10:38:29;33.80;;;15.00;;
18738;SDS011;9498;51.862;19.460;2022-10-18T10:40:57;29.53;;;14.93;;
18738;SDS011;9498;51.862;19.460;2022-10-18T10:43:26;35.53;;;16.30;;
18738;SDS011;9498;51.862;19.460;2022-10-18T10:45:57;29.27;;;15.48;;
18738;SDS011;9498;51.862;19.460;2022-10-18T10:48:25;28.90;;;16.50;;
18738;SDS011;9498;51.862;19.460;2022-10-18T10:50:54;33.07;;;15.27;;
18738;SDS011;9498;51.862;19.460;2022-10-18T10:53:25;33.03;;;17.83;;
18738;SDS011;9498;51.862;19.460;2022-10-18T10:55:53;31.65;;;17.30;;
18738;SDS011;9498;51.862;19.460;2022-10-18T10:58:21;34.60;;;15.50;;
18738;SDS011;9498;51.862;19.460;2022-10-18T11:00:50;28.38;;;16.42;;
18738;SDS011;9498;51.862;19.460;2022-10-18T11:03:18;30.90;;;15.97;;
18738;SDS011;9498;51.862;19.460;2022-10-18T11:05:46;31.33;;;15.53;;
18738;SDS011;9498;51.862;19.460;2022-10-18T11:08:15;34.77;;;15.80;;
18738;SDS011;9498;51.862;19.460;2022-10-18T11:10:49;33.70;;;14.57;;
18738;SDS011;9498;51.862;19.460;2022-10-18T11:13:21;30.50;;;15.70;;
18738;SDS011;9498;51.862;19.460;2022-10-18T11:15:53;30.35;;;16.15;;
18738;SDS011;9498;51.862;19.460;2022-10-18T11:18:24;29.53;;;15.50;;
18738;SDS011;9498;51.862;19.460;2022-10-18T11:20:55;28.07;;;15.00;;
18738;SDS011;9498;51.862;19.460;2022-10-18T11:23:24;30.93;;;14.10;;
18738;SDS011;9498;51.862;19.460;2022-10-18T11:25:58;30.48;;;16.25;;
18738;SDS011;9498;51.862;19.460;2022-10-18T11:28:28;26.43;;;14.87;;
18738;SDS011;9498;51.862;19.460;2022-10-18T11:31:03;24.63;;;14.47;;
18738;SDS011;9498;51.862;19.460;2022-10-18T11:33:38;31.30;;;15.93;;
18738;SDS011;9498;51.862;19.460;2022-10-18T11:36:07;26.47;;;14.50;;
18738;SDS011;9498;51.862;19.460;2022-10-18T11:38:38;32.03;;;16.73;;
18738;SDS011;9498;51.862;19.460;2022-10-18T11:43:52;28.40;;;14.90;;
18738;SDS011;9498;51.862;19.460;2022-10-18T11:46:24;27.80;;;15.17;;
18738;SDS011;9498;51.862;19.460;2022-10-18T11:48:59;33.70;;;16.83;;
18738;SDS011;9498;51.862;19.460;2022-10-18T11:51:29;27.67;;;15.77;;
18738;SDS011;9498;51.862;19.460;2022-10-18T11:54:03;31.00;;;15.40;;
18738;SDS011;9498;51.862;19.460;2022-10-18T11:56:34;27.83;;;15.50;;
18738;SDS011;9498;51.862;19.460;2022-10-18T11:59:06;30.17;;;16.07;;
18738;SDS011;9498;51.862;19.460;2022-10-18T12:01:38;30.45;;;17.40;;
18738;SDS011;9498;51.862;19.460;2022-10-18T12:04:10;25.30;;;14.57;;
18738;SDS011;9498;51.862;19.460;2022-10-18T12:06:40;31.90;;;15.43;;
18738;SDS011;9498;51.862;19.460;2022-10-18T12:09:10;26.57;;;14.23;;
18738;SDS011;9498;51.862;19.460;2022-10-18T12:11:40;32.28;;;17.13;;
18738;SDS011;9498;51.862;19.460;2022-10-18T12:14:13;31.97;;;16.40;;
18738;SDS011;9498;51.862;19.460;2022-10-18T12:16:44;34.67;;;16.70;;
18738;SDS011;9498;51.862;19.460;2022-10-18T12:19:13;35.00;;;16.90;;
18738;SDS011;9498;51.862;19.460;2022-10-18T12:21:43;30.43;;;16.93;;
18738;SDS011;9498;51.862;19.460;2022-10-18T12:24:11;34.05;;;17.38;;
18738;SDS011;9498;51.862;19.460;2022-10-18T12:26:42;49.83;;;17.43;;
18738;SDS011;9498;51.862;19.460;2022-10-18T12:29:15;30.20;;;16.23;;
18738;SDS011;9498;51.862;19.460;2022-10-18T12:31:47;34.03;;;16.97;;
18738;SDS011;9498;51.862;19.460;2022-10-18T12:34:23;29.03;;;16.60;;
18738;SDS011;9498;51.862;19.460;2022-10-18T12:36:54;34.83;;;18.27;;
18738;SDS011;9498;51.862;19.460;2022-10-18T12:39:25;29.27;;;15.90;;
18738;SDS011;9498;51.862;19.460;2022-10-18T12:41:54;30.80;;;15.87;;
18738;SDS011;9498;51.862;19.460;2022-10-18T12:44:23;29.10;;;16.47;;
18738;SDS011;9498;51.862;19.460;2022-10-18T12:46:54;32.47;;;16.37;;
18738;SDS011;9498;51.862;19.460;2022-10-18T12:49:23;33.13;;;16.80;;
18738;SDS011;9498;51.862;19.460;2022-10-18T12:51:51;36.20;;;17.53;;
18738;SDS011;9498;51.862;19.460;2022-10-18T12:54:19;34.37;;;16.73;;
18738;SDS011;9498;51.862;19.460;2022-10-18T12:56:48;31.00;;;15.73;;
18738;SDS011;9498;51.862;19.460;2022-10-18T13:07:47;40.60;;;18.27;;
18738;SDS011;9498;51.862;19.460;2022-10-18T13:13:23;33.40;;;16.63;;
18738;SDS011;9498;51.862;19.460;2022-10-18T13:15:55;31.63;;;16.80;;
18738;SDS011;9498;51.862;19.460;2022-10-18T13:18:25;30.23;;;16.63;;
18738;SDS011;9498;51.862;19.460;2022-10-18T13:21:00;29.90;;;15.10;;
18738;SDS011;9498;51.862;19.460;2022-10-18T13:23:37;33.20;;;16.33;;
18738;SDS011;9498;51.862;19.460;2022-10-18T13:26:11;33.90;;;17.20;;
18738;SDS011;9498;51.862;19.460;2022-10-18T13:28:40;37.33;;;17.83;;
18738;SDS011;9498;51.862;19.460;2022-10-18T13:31:12;31.90;;;18.17;;
18738;SDS011;9498;51.862;19.460;2022-10-18T13:33:42;32.60;;;16.73;;
18738;SDS011;9498;51.862;19.460;2022-10-18T13:36:18;32.77;;;16.77;;
18738;SDS011;9498;51.862;19.460;2022-10-18T13:38:54;35.17;;;17.17;;
18738;SDS011;9498;51.862;19.460;2022-10-18T13:41:26;38.67;;;18.07;;
18738;SDS011;9498;51.862;19.460;2022-10-18T13:43:58;33.97;;;17.33;;
18738;SDS011;9498;51.862;19.460;2022-10-18T13:49:16;31.90;;;16.43;;
18738;SDS011;9498;51.862;19.460;2022-10-18T13:51:52;36.83;;;18.53;;
18738;SDS011;9498;51.862;19.460;2022-10-18T13:54:31;35.63;;;17.80;;
18738;SDS011;9498;51.862;19.460;2022-10-18T13:57:05;35.47;;;17.17;;
18738;SDS011;9498;51.862;19.460;2022-10-18T13:59:40;36.87;;;17.57;;
18738;SDS011;9498;51.862;19.460;2022-10-18T14:02:23;31.37;;;17.27;;
18738;SDS011;9498;51.862;19.460;2022-10-18T14:04:58;35.30;;;17.30;;
18738;SDS011;9498;51.862;19.460;2022-10-18T14:07:32;39.10;;;17.10;;
18738;SDS011;9498;51.862;19.460;2022-10-18T14:10:01;32.03;;;16.63;;
18738;SDS011;9498;51.862;19.460;2022-10-18T14:12:29;34.57;;;17.30;;
18738;SDS011;9498;51.862;19.460;2022-10-18T14:15:01;31.83;;;15.77;;
18738;SDS011;9498;51.862;19.460;2022-10-18T14:17:31;36.43;;;17.03;;
18738;SDS011;9498;51.862;19.460;2022-10-18T14:20:00;42.27;;;17.33;;
18738;SDS011;9498;51.862;19.460;2022-10-18T14:22:30;33.50;;;15.20;;
18738;SDS011;9498;51.862;19.460;2022-10-18T14:25:02;33.30;;;17.57;;
18738;SDS011;9498;51.862;19.460;2022-10-18T14:27:31;31.57;;;16.23;;
18738;SDS011;9498;51.862;19.460;2022-10-18T14:30:09;32.57;;;17.00;;
18738;SDS011;9498;51.862;19.460;2022-10-18T14:32:36;29.43;;;16.17;;
18738;SDS011;9498;51.862;19.460;2022-10-18T14:35:04;29.73;;;17.10;;
18738;SDS011;9498;51.862;19.460;2022-10-18T14:37:41;32.90;;;16.77;;
18738;SDS011;9498;51.862;19.460;2022-10-18T14:42:53;36.83;;;18.77;;
18738;SDS011;9498;51.862;19.460;2022-10-18T14:45:20;30.27;;;17.47;;
18738;SDS011;9498;51.862;19.460;2022-10-18T14:47:48;34.90;;;17.53;;
18738;SDS011;9498;51.862;19.460;2022-10-18T14:50:19;37.80;;;19.13;;
18738;SDS011;9498;51.862;19.460;2022-10-18T14:52:46;36.20;;;20.10;;
18738;SDS011;9498;51.862;19.460;2022-10-18T14:55:14;38.50;;;20.07;;
18738;SDS011;9498;51.862;19.460;2022-10-18T14:57:43;45.63;;;22.53;;
18738;SDS011;9498;51.862;19.460;2022-10-18T15:00:16;60.20;;;26.60;;